createdAt,value
2018-04-26T00:01:14.865Z,5.63
2018-04-26T00:04:18.136Z,6.25
2018-04-26T00:07:21.397Z,5.30
2018-04-26T00:10:24.696Z,5.80
2018-04-26T00:13:27.992Z,5.13
2018-04-26T00:16:31.242Z,5.27
2018-04-26T00:19:35.274Z,6.33
2018-04-26T00:22:38.554Z,5.17
2018-04-26T00:25:41.884Z,5.70
2018-04-26T00:28:45.183Z,5.43
2018-04-26T00:31:48.452Z,5.80
2018-04-26T00:34:52.526Z,6.13
2018-04-26T00:37:56.837Z,5.32
2018-04-26T00:41:00.087Z,5.40
2018-04-26T00:44:03.354Z,4.07
2018-04-26T00:47:06.681Z,4.03
2018-04-26T00:50:10.731Z,5.00
2018-04-26T00:53:14.006Z,4.97
2018-04-26T00:56:17.374Z,4.87
2018-04-26T00:59:21.407Z,6.17
2018-04-26T01:02:25.517Z,5.13
2018-04-26T01:05:29.539Z,6.17
2018-04-26T01:08:32.867Z,5.30
2018-04-26T01:11:36.110Z,5.17
2018-04-26T01:14:39.382Z,5.33
2018-04-26T01:17:42.661Z,5.90
2018-04-26T01:20:46.034Z,5.17
2018-04-26T01:23:49.281Z,4.50
2018-04-26T01:26:52.552Z,5.17
2018-04-26T01:29:55.835Z,4.33
2018-04-26T01:32:59.095Z,4.47
2018-04-26T01:36:02.402Z,4.37
2018-04-26T01:39:06.439Z,4.47
2018-04-26T01:42:09.704Z,4.70
2018-04-26T01:45:13.044Z,4.30
2018-04-26T01:48:16.303Z,4.60
2018-04-26T01:51:20.322Z,4.70
2018-04-26T01:54:24.361Z,4.63
2018-04-26T01:57:27.639Z,5.13
2018-04-26T02:00:31.698Z,4.03
2018-04-26T02:03:34.962Z,4.33
2018-04-26T02:06:38.293Z,4.17
2018-04-26T02:09:41.549Z,4.80
2018-04-26T02:12:45.579Z,5.57
2018-04-26T02:15:48.848Z,5.83
2018-04-26T02:18:52.177Z,4.60
2018-04-26T02:21:55.468Z,5.03
2018-04-26T02:24:58.737Z,4.77
2018-04-26T02:28:02.002Z,4.97
2018-04-26T02:31:05.264Z,5.07
2018-04-26T02:34:08.530Z,5.50
2018-04-26T02:37:11.789Z,4.97
2018-04-26T02:40:15.056Z,5.33
2018-04-26T02:43:18.367Z,4.50
2018-04-26T02:46:21.628Z,4.83
2018-04-26T02:49:24.877Z,4.67
2018-04-26T02:52:28.137Z,5.27
2018-04-26T02:55:32.174Z,4.30
2018-04-26T02:58:35.444Z,5.23
2018-04-26T03:01:39.469Z,4.83
2018-04-26T03:04:42.730Z,4.60
2018-04-26T03:07:45.995Z,4.60
2018-04-26T03:10:49.472Z,4.17
2018-04-26T03:13:52.777Z,4.23
2018-04-26T03:16:56.030Z,4.10
2018-04-26T03:19:59.352Z,4.37
2018-04-26T03:23:03.398Z,4.13
2018-04-26T03:26:06.650Z,3.73
2018-04-26T03:29:10.683Z,4.40
2018-04-26T03:32:15.731Z,3.60
2018-04-26T03:35:19.009Z,3.97
2018-04-26T03:38:23.074Z,3.80
2018-04-26T03:41:26.337Z,3.50
2018-04-26T03:44:29.595Z,3.33
2018-04-26T03:47:32.852Z,3.47
2018-04-26T03:50:36.133Z,3.93
2018-04-26T03:53:39.404Z,4.37
2018-04-26T03:56:43.240Z,4.87
2018-04-26T04:00:04.562Z,4.17
2018-04-26T04:03:25.753Z,3.77
2018-04-26T04:06:29.149Z,4.13
2018-04-26T04:09:33.171Z,3.77
2018-04-26T04:12:37.193Z,4.23
2018-04-26T04:15:41.657Z,3.73
2018-04-26T04:18:44.922Z,4.00
2018-04-26T04:22:12.193Z,3.93
2018-04-26T04:25:15.558Z,2.93
2018-04-26T04:28:19.584Z,2.40
2018-04-26T04:31:24.052Z,2.37
2018-04-26T04:34:32.895Z,2.67
2018-04-26T04:37:36.388Z,2.33
2018-04-26T04:40:39.677Z,2.73
2018-04-26T04:43:42.922Z,2.80
2018-04-26T04:46:46.426Z,2.60
2018-04-26T04:49:50.603Z,3.00
2018-04-26T04:52:53.863Z,3.13
2018-04-26T04:55:57.173Z,3.00
2018-04-26T04:59:00.467Z,3.13
2018-04-26T05:02:03.825Z,3.47
2018-04-26T05:05:10.402Z,2.87
2018-04-26T05:08:23.298Z,2.80
2018-04-26T05:11:26.688Z,2.73
2018-04-26T05:14:29.973Z,2.87
2018-04-26T05:17:34.014Z,2.77
2018-04-26T05:20:37.273Z,2.78
2018-04-26T05:23:41.305Z,1.80
2018-04-26T05:26:45.322Z,2.07
2018-04-26T05:29:48.599Z,1.27
2018-04-26T05:32:51.849Z,0.90
2018-04-26T05:35:55.110Z,1.30
2018-04-26T05:38:59.154Z,0.93
2018-04-26T05:42:02.410Z,1.83
2018-04-26T05:45:06.454Z,1.30
2018-04-26T05:48:09.714Z,1.30
2018-04-26T05:51:12.982Z,1.87
2018-04-26T05:54:16.275Z,1.58
2018-04-26T05:57:19.517Z,1.70
2018-04-26T06:00:23.545Z,1.50
2018-04-26T06:03:26.847Z,1.77
2018-04-26T06:06:30.842Z,1.60
2018-04-26T06:09:34.861Z,1.60
2018-04-26T06:12:38.969Z,1.60
2018-04-26T06:15:42.996Z,2.00
2018-04-26T06:18:47.001Z,1.80
2018-04-26T06:21:51.050Z,1.87
2018-04-26T06:24:55.416Z,1.90
2018-04-26T06:27:59.578Z,2.27
2018-04-26T06:31:03.649Z,1.80
2018-04-26T06:34:06.869Z,1.60
2018-04-26T06:37:10.970Z,1.93
2018-04-26T06:40:14.907Z,1.80
2018-04-26T06:43:19.114Z,2.47
2018-04-26T06:46:22.361Z,1.60
2018-04-26T06:49:25.605Z,1.53
2018-04-26T06:52:28.909Z,1.70
2018-04-26T06:55:32.927Z,1.63
2018-04-26T06:58:36.938Z,1.75
2018-04-26T07:01:40.950Z,2.13
2018-04-26T07:04:44.963Z,1.92
2018-04-26T07:07:48.246Z,1.70
2018-04-26T07:10:51.513Z,1.70
2018-04-26T07:13:54.757Z,1.90
2018-04-26T07:16:58.796Z,1.90
2018-04-26T07:20:02.047Z,1.90
2018-04-26T07:23:05.681Z,2.20
2018-04-26T07:26:09.698Z,1.80
2018-04-26T07:29:13.790Z,1.73
2018-04-26T07:35:34.623Z,1.80
2018-04-26T07:38:37.929Z,1.70
2018-04-26T07:41:41.960Z,1.80
2018-04-26T07:44:46.003Z,1.98
2018-04-26T07:47:50.001Z,1.90
2018-04-26T07:50:54.070Z,1.50
2018-04-26T07:53:57.325Z,1.57
2018-04-26T07:57:00.586Z,1.97
2018-04-26T08:00:04.606Z,1.77
2018-04-26T08:03:08.668Z,2.10
2018-04-26T08:06:12.253Z,1.83
2018-04-26T08:09:15.735Z,1.83
2018-04-26T08:12:19.760Z,1.77
2018-04-26T08:15:23.031Z,1.70
2018-04-26T08:18:26.329Z,1.65
2018-04-26T08:21:30.365Z,1.90
2018-04-26T08:24:34.574Z,1.73
2018-04-26T08:27:38.670Z,1.23
2018-04-26T08:30:41.933Z,1.60
2018-04-26T08:33:45.194Z,1.50
2018-04-26T08:36:49.252Z,1.63
2018-04-26T08:39:52.489Z,1.70
2018-04-26T08:42:57.085Z,1.90
2018-04-26T08:46:00.339Z,1.43
2018-04-26T08:49:03.632Z,1.80
2018-04-26T08:52:06.910Z,1.67
2018-04-26T08:55:10.936Z,1.60
2018-04-26T08:58:14.967Z,1.45
2018-04-26T09:01:18.226Z,1.57
2018-04-26T09:04:22.272Z,1.70
2018-04-26T09:07:26.291Z,2.07
2018-04-26T09:10:29.601Z,1.83
2018-04-26T09:13:35.490Z,1.73
2018-04-26T09:16:39.296Z,2.00
2018-04-26T09:19:42.563Z,1.93
2018-04-26T09:22:45.814Z,1.67
2018-04-26T09:25:49.092Z,1.47
2018-04-26T09:28:52.347Z,2.30
2018-04-26T09:31:55.604Z,1.60
2018-04-26T09:34:58.881Z,1.90
2018-04-26T09:38:02.141Z,1.80
2018-04-26T09:41:05.401Z,1.67
2018-04-26T09:44:08.685Z,1.67
2018-04-26T09:47:11.942Z,1.40
2018-04-26T09:50:15.199Z,1.73
2018-04-26T09:53:19.238Z,1.70
2018-04-26T09:56:22.501Z,1.60
2018-04-26T09:59:25.922Z,1.57
2018-04-26T10:02:29.946Z,1.73
2018-04-26T10:05:38.701Z,1.20
2018-04-26T10:08:41.975Z,1.30
2018-04-26T10:11:45.240Z,1.57
2018-04-26T10:14:49.234Z,2.10
2018-04-26T10:17:52.504Z,1.30
2018-04-26T10:20:55.770Z,1.60
2018-04-26T10:23:59.805Z,2.17
2018-04-26T10:27:03.149Z,2.13
2018-04-26T10:30:07.202Z,1.80
2018-04-26T10:33:10.518Z,1.83
2018-04-26T10:36:13.896Z,2.00
2018-04-26T10:39:17.947Z,1.80
2018-04-26T10:42:21.211Z,1.60
2018-04-26T10:45:24.465Z,1.37
2018-04-26T10:48:27.726Z,1.50
2018-04-26T10:51:30.979Z,1.40
2018-04-26T10:54:35.001Z,1.40
2018-04-26T10:57:39.064Z,1.60
2018-04-26T11:00:42.330Z,1.25
2018-04-26T11:03:45.612Z,1.50
2018-04-26T11:06:49.644Z,1.47
2018-04-26T11:09:52.896Z,1.17
2018-04-26T11:12:57.172Z,1.45
2018-04-26T11:16:00.432Z,1.53
2018-04-26T11:19:03.686Z,1.47
2018-04-26T11:22:07.032Z,1.40
2018-04-26T11:25:10.579Z,1.30
2018-04-26T11:28:13.916Z,1.47
2018-04-26T11:31:17.169Z,1.30
2018-04-26T11:34:20.435Z,1.30
2018-04-26T11:37:24.454Z,1.37
2018-04-26T11:40:28.495Z,1.23
2018-04-26T11:43:32.134Z,1.40
2018-04-26T11:46:35.481Z,1.40
2018-04-26T11:49:38.678Z,1.43
2018-04-26T11:52:41.939Z,1.33
2018-04-26T11:55:45.203Z,1.20
2018-04-26T11:58:48.474Z,1.23
2018-04-26T12:01:53.427Z,1.33
2018-04-26T12:04:56.695Z,1.43
2018-04-26T12:08:00.717Z,1.30
2018-04-26T12:11:04.744Z,1.17
2018-04-26T12:14:08.040Z,1.70
2018-04-26T12:17:12.083Z,1.40
2018-04-26T12:20:15.373Z,1.58
2018-04-26T12:23:18.637Z,1.17
2018-04-26T12:26:23.011Z,1.30
2018-04-26T12:29:26.553Z,1.33
2018-04-26T12:32:29.739Z,1.07
2018-04-26T12:35:33.055Z,0.83
2018-04-26T12:38:36.279Z,1.10
2018-04-26T12:41:39.534Z,1.07
2018-04-26T12:44:42.785Z,1.03
2018-04-26T12:47:46.070Z,1.27
2018-04-26T12:50:49.337Z,1.37
2018-04-26T12:53:53.370Z,0.90
2018-04-26T12:56:56.628Z,1.03
2018-04-26T12:59:59.898Z,1.30
2018-04-26T13:03:03.388Z,1.07
2018-04-26T13:06:07.467Z,1.40
2018-04-26T13:09:12.612Z,0.87
2018-04-26T13:12:17.918Z,1.10
2018-04-26T13:15:22.011Z,1.13
2018-04-26T13:18:25.289Z,1.13
2018-04-26T13:21:29.995Z,1.00
2018-04-26T13:24:33.217Z,1.17
2018-04-26T13:30:47.552Z,1.00
2018-04-26T13:33:56.018Z,1.23
2018-04-26T13:36:59.628Z,1.30
2018-04-26T13:40:02.901Z,1.10
2018-04-26T13:43:06.936Z,1.20
2018-04-26T13:46:10.219Z,1.40
2018-04-26T13:49:14.288Z,1.08
2018-04-26T13:52:17.554Z,1.17
2018-04-26T13:55:20.856Z,1.00
2018-04-26T13:58:24.168Z,1.10
2018-04-26T14:01:27.433Z,1.20
2018-04-26T14:04:30.718Z,1.07
2018-04-26T14:10:49.406Z,1.20
2018-04-26T14:13:53.011Z,1.27
2018-04-26T14:16:57.044Z,1.40
2018-04-26T14:20:00.309Z,1.07
2018-04-26T14:23:04.477Z,1.40
2018-04-26T14:26:07.656Z,1.00
2018-04-26T14:29:10.915Z,1.10
2018-04-26T14:32:15.014Z,1.10
2018-04-26T14:35:18.295Z,1.50
2018-04-26T14:38:21.588Z,1.00
2018-04-26T14:41:24.856Z,1.30
2018-04-26T14:44:28.215Z,1.30
2018-04-26T14:47:32.255Z,1.37
2018-04-26T14:50:35.872Z,1.42
2018-04-26T14:53:39.580Z,1.03
2018-04-26T14:56:42.845Z,0.90
2018-04-26T14:59:46.894Z,0.83
2018-04-26T15:02:50.160Z,0.90
2018-04-26T15:05:54.656Z,1.20
2018-04-26T15:08:57.917Z,0.90
2018-04-26T15:12:01.179Z,1.10
2018-04-26T15:15:04.446Z,0.95
2018-04-26T15:18:07.716Z,0.87
2018-04-26T15:21:10.996Z,1.40
2018-04-26T15:24:14.307Z,1.17
2018-04-26T15:27:17.619Z,1.13
2018-04-26T15:30:20.894Z,1.03
2018-04-26T15:33:24.200Z,1.50
2018-04-26T15:36:27.452Z,1.20
2018-04-26T15:39:30.733Z,1.20
2018-04-26T15:42:34.041Z,0.80
2018-04-26T15:45:37.305Z,1.13
2018-04-26T15:48:40.580Z,0.90
2018-04-26T15:51:43.973Z,1.03
2018-04-26T15:59:03.590Z,2.50
2018-04-26T16:02:32.121Z,4.10
2018-04-26T16:05:53.400Z,1.77
2018-04-26T16:09:14.551Z,0.90
2018-04-26T16:12:56.479Z,1.10
2018-04-26T16:20:19.055Z,0.80
2018-04-26T16:23:45.712Z,0.97
2018-04-26T16:31:10.775Z,1.10
2018-04-26T16:34:45.562Z,1.03
2018-04-26T16:38:12.433Z,0.80
2018-04-26T16:41:15.758Z,1.10
2018-04-26T16:44:19.081Z,0.90
2018-04-26T16:47:22.352Z,1.10
2018-04-26T16:50:25.650Z,0.77
2018-04-26T16:53:30.070Z,1.37
2018-04-26T16:56:34.235Z,0.80
2018-04-26T16:59:37.636Z,1.17
2018-04-26T17:02:41.716Z,0.80
2018-04-26T17:05:45.005Z,1.10
2018-04-26T17:08:48.360Z,0.97
2018-04-26T17:11:51.702Z,1.00
2018-04-26T17:14:55.333Z,1.10
2018-04-26T17:17:58.609Z,0.90
2018-04-26T17:21:02.695Z,0.90
2018-04-26T17:24:05.979Z,0.93
2018-04-26T17:27:09.425Z,0.83
2018-04-26T17:30:13.494Z,1.08
2018-04-26T17:33:16.749Z,1.20
2018-04-26T17:36:20.026Z,1.00
2018-04-26T17:39:24.111Z,1.37
2018-04-26T17:42:27.486Z,1.63
2018-04-26T17:45:30.634Z,1.40
2018-04-26T17:48:34.686Z,1.00
2018-04-26T17:51:37.948Z,1.17
2018-04-26T17:54:41.990Z,1.30
2018-04-26T17:57:45.257Z,1.40
2018-04-26T18:00:49.370Z,1.30
2018-04-26T18:03:53.461Z,1.63
2018-04-26T18:06:56.738Z,1.17
2018-04-26T18:10:00.044Z,1.70
2018-04-26T18:13:03.383Z,1.70
2018-04-26T18:16:07.884Z,2.33
2018-04-26T18:19:11.167Z,1.30
2018-04-26T18:22:14.536Z,1.23
2018-04-26T18:25:17.820Z,1.33
2018-04-26T18:28:21.089Z,1.53
2018-04-26T18:31:24.478Z,1.80
2018-04-26T18:34:27.769Z,1.10
2018-04-26T18:37:31.178Z,1.20
2018-04-26T18:40:34.951Z,1.40
2018-04-26T18:43:38.153Z,1.50
2018-04-26T18:46:41.447Z,1.80
2018-04-26T18:49:44.764Z,1.37
2018-04-26T18:52:48.061Z,1.40
2018-04-26T18:55:51.345Z,1.57
2018-04-26T18:58:54.674Z,1.50
2018-04-26T19:01:58.110Z,1.90
2018-04-26T19:05:01.408Z,1.17
2018-04-26T19:08:04.933Z,1.60
2018-04-26T19:11:08.206Z,1.43
2018-04-26T19:14:11.516Z,1.33
2018-04-26T19:17:15.513Z,1.13
2018-04-26T19:20:19.598Z,1.40
2018-04-26T19:23:22.882Z,1.60
2018-04-26T19:26:26.137Z,1.37
2018-04-26T19:29:29.457Z,1.60
2018-04-26T19:32:32.728Z,1.33
2018-04-26T19:35:36.774Z,1.33
2018-04-26T19:38:40.034Z,1.57
2018-04-26T19:41:44.155Z,1.80
2018-04-26T19:44:48.181Z,2.10
2018-04-26T19:47:51.549Z,2.63
2018-04-26T19:50:54.817Z,2.53
2018-04-26T19:54:03.219Z,1.80
2018-04-26T19:57:06.676Z,1.73
2018-04-26T20:00:10.017Z,1.77
2018-04-26T20:03:13.606Z,2.00
2018-04-26T20:06:17.728Z,1.50
2018-04-26T20:09:21.246Z,1.73
2018-04-26T20:12:24.561Z,1.90
2018-04-26T20:15:28.602Z,2.25
2018-04-26T20:18:31.895Z,2.03
2018-04-26T20:21:35.238Z,1.80
2018-04-26T20:24:39.493Z,2.53
2018-04-26T20:27:43.498Z,1.60
2018-04-26T20:30:47.526Z,1.40
2018-04-26T20:33:51.568Z,2.20
2018-04-26T20:36:54.822Z,1.90
2018-04-26T20:39:58.421Z,2.00
2018-04-26T20:43:01.696Z,2.00
2018-04-26T20:46:04.956Z,1.77
2018-04-26T20:49:08.235Z,1.90
2018-04-26T20:52:12.236Z,1.83
2018-04-26T20:55:16.253Z,2.27
2018-04-26T20:58:19.532Z,2.53
2018-04-26T21:01:22.787Z,2.43
2018-04-26T21:04:26.034Z,2.73
2018-04-26T21:07:29.326Z,2.73
2018-04-26T21:10:33.567Z,3.23
2018-04-26T21:13:37.594Z,2.87
2018-04-26T21:16:40.840Z,3.70
2018-04-26T21:19:44.135Z,4.30
2018-04-26T21:22:47.388Z,3.30
2018-04-26T21:25:50.686Z,3.37
2018-04-26T21:28:53.969Z,3.10
2018-04-26T21:31:57.978Z,2.40
2018-04-26T21:35:01.986Z,2.23
2018-04-26T21:38:05.247Z,2.70
2018-04-26T21:41:08.485Z,2.40
2018-04-26T21:44:12.504Z,2.60
2018-04-26T21:47:16.506Z,2.23
2018-04-26T21:50:33.635Z,2.30
2018-04-26T21:53:43.158Z,2.45
2018-04-26T21:56:52.012Z,2.43
2018-04-26T22:00:01.726Z,2.20
2018-04-26T22:03:04.973Z,1.73
2018-04-26T22:06:08.222Z,2.53
2018-04-26T22:09:11.483Z,2.23
2018-04-26T22:12:14.755Z,2.20
2018-04-26T22:15:18.041Z,2.60
2018-04-26T22:18:22.047Z,2.80
2018-04-26T22:21:25.294Z,2.33
2018-04-26T22:24:28.533Z,2.60
2018-04-26T22:27:31.793Z,2.57
2018-04-26T22:30:35.039Z,3.30
2018-04-26T22:33:38.286Z,3.13
2018-04-26T22:36:41.537Z,4.20
2018-04-26T22:39:45.552Z,2.60
2018-04-26T22:42:49.574Z,3.07
2018-04-26T22:45:53.658Z,2.53
2018-04-26T22:48:56.910Z,2.20
2018-04-26T22:52:00.162Z,2.57
2018-04-26T22:55:03.416Z,2.77
2018-04-26T22:58:06.684Z,2.70
2018-04-26T23:01:10.703Z,2.73
2018-04-26T23:04:13.992Z,3.23
2018-04-26T23:07:18.004Z,2.40
2018-04-26T23:10:22.020Z,3.03
2018-04-26T23:13:26.971Z,2.73
2018-04-26T23:16:30.213Z,2.87
2018-04-26T23:19:33.458Z,2.50
2018-04-26T23:22:36.798Z,2.83
2018-04-26T23:25:40.053Z,2.70
2018-04-26T23:28:43.314Z,2.77
2018-04-26T23:31:46.556Z,2.20
2018-04-26T23:34:49.808Z,2.42
2018-04-26T23:37:53.058Z,2.30
2018-04-26T23:40:56.293Z,2.47
2018-04-26T23:43:59.552Z,2.43
2018-04-26T23:47:02.802Z,2.47
2018-04-26T23:50:06.067Z,2.37
2018-04-26T23:53:10.085Z,2.37
2018-04-26T23:56:13.348Z,2.20
2018-04-26T23:59:16.605Z,2.20
